sensor_id;sensor_type;location;lat;lon;timestamp;P1;durP1;ratioP1;P2;durP2;ratioP2
75787;SDS011;64406;50.024;14.492;2023-08-20T00:00:17;7.60;;;6.03;;
75787;SDS011;64406;50.024;14.492;2023-08-20T00:03:04;7.93;;;6.65;;
75787;SDS011;64406;50.024;14.492;2023-08-20T00:05:36;13.10;;;7.63;;
75787;SDS011;64406;50.024;14.492;2023-08-20T00:08:02;7.13;;;6.43;;
75787;SDS011;64406;50.024;14.492;2023-08-20T00:10:28;8.70;;;6.65;;
75787;SDS011;64406;50.024;14.492;2023-08-20T00:12:54;8.60;;;7.10;;
75787;SDS011;64406;50.024;14.492;2023-08-20T00:15:20;8.98;;;6.45;;
75787;SDS011;64406;50.024;14.492;2023-08-20T00:17:51;8.30;;;6.30;;
75787;SDS011;64406;50.024;14.492;2023-08-20T00:20:18;8.73;;;7.45;;
75787;SDS011;64406;50.024;14.492;2023-08-20T00:22:44;8.90;;;6.85;;
75787;SDS011;64406;50.024;14.492;2023-08-20T00:25:11;8.43;;;6.72;;
75787;SDS011;64406;50.024;14.492;2023-08-20T00:27:40;8.68;;;7.07;;
75787;SDS011;64406;50.024;14.492;2023-08-20T00:30:07;9.48;;;7.13;;
75787;SDS011;64406;50.024;14.492;2023-08-20T00:32:34;9.02;;;7.45;;
75787;SDS011;64406;50.024;14.492;2023-08-20T00:35:00;7.95;;;6.57;;
75787;SDS011;64406;50.024;14.492;2023-08-20T00:37:28;14.77;;;7.07;;
75787;SDS011;64406;50.024;14.492;2023-08-20T00:39:54;11.23;;;7.95;;
75787;SDS011;64406;50.024;14.492;2023-08-20T00:42:19;8.48;;;7.50;;
75787;SDS011;64406;50.024;14.492;2023-08-20T00:44:45;8.75;;;7.38;;
75787;SDS011;64406;50.024;14.492;2023-08-20T00:47:11;10.88;;;8.18;;
75787;SDS011;64406;50.024;14.492;2023-08-20T00:49:38;7.80;;;6.97;;
75787;SDS011;64406;50.024;14.492;2023-08-20T00:52:05;8.45;;;7.43;;
75787;SDS011;64406;50.024;14.492;2023-08-20T00:54:33;10.15;;;7.30;;
75787;SDS011;64406;50.024;14.492;2023-08-20T00:56:59;8.55;;;6.95;;
75787;SDS011;64406;50.024;14.492;2023-08-20T00:59:27;9.90;;;6.97;;
75787;SDS011;64406;50.024;14.492;2023-08-20T01:01:53;7.95;;;7.10;;
75787;SDS011;64406;50.024;14.492;2023-08-20T01:04:19;8.80;;;7.55;;
75787;SDS011;64406;50.024;14.492;2023-08-20T01:07:03;11.63;;;7.55;;
75787;SDS011;64406;50.024;14.492;2023-08-20T01:12:11;7.97;;;6.82;;
75787;SDS011;64406;50.024;14.492;2023-08-20T01:14:39;9.63;;;8.63;;
75787;SDS011;64406;50.024;14.492;2023-08-20T01:17:05;12.98;;;8.07;;
75787;SDS011;64406;50.024;14.492;2023-08-20T01:19:31;9.88;;;8.32;;
75787;SDS011;64406;50.024;14.492;2023-08-20T01:25:08;12.00;;;8.00;;
75787;SDS011;64406;50.024;14.492;2023-08-20T01:27:53;10.77;;;8.00;;
75787;SDS011;64406;50.024;14.492;2023-08-20T01:30:29;9.10;;;8.05;;
75787;SDS011;64406;50.024;14.492;2023-08-20T01:32:55;9.52;;;7.82;;
75787;SDS011;64406;50.024;14.492;2023-08-20T01:35:24;10.13;;;8.18;;
75787;SDS011;64406;50.024;14.492;2023-08-20T01:37:50;8.43;;;7.35;;
75787;SDS011;64406;50.024;14.492;2023-08-20T01:40:16;10.32;;;8.00;;
75787;SDS011;64406;50.024;14.492;2023-08-20T01:42:41;9.80;;;7.65;;
75787;SDS011;64406;50.024;14.492;2023-08-20T01:45:07;10.02;;;8.20;;
75787;SDS011;64406;50.024;14.492;2023-08-20T01:47:33;9.32;;;8.35;;
75787;SDS011;64406;50.024;14.492;2023-08-20T01:49:59;8.65;;;7.57;;
75787;SDS011;64406;50.024;14.492;2023-08-20T01:52:25;10.13;;;8.77;;
75787;SDS011;64406;50.024;14.492;2023-08-20T01:54:50;14.40;;;8.80;;
75787;SDS011;64406;50.024;14.492;2023-08-20T01:57:16;10.65;;;7.75;;
75787;SDS011;64406;50.024;14.492;2023-08-20T01:59:42;9.40;;;8.00;;
75787;SDS011;64406;50.024;14.492;2023-08-20T02:02:08;10.32;;;9.25;;
75787;SDS011;64406;50.024;14.492;2023-08-20T02:04:33;10.25;;;8.18;;
75787;SDS011;64406;50.024;14.492;2023-08-20T02:06:59;11.20;;;8.50;;
75787;SDS011;64406;50.024;14.492;2023-08-20T02:09:25;11.32;;;8.50;;
75787;SDS011;64406;50.024;14.492;2023-08-20T02:11:51;10.20;;;8.65;;
75787;SDS011;64406;50.024;14.492;2023-08-20T02:14:17;11.48;;;9.00;;
75787;SDS011;64406;50.024;14.492;2023-08-20T02:16:43;12.20;;;9.13;;
75787;SDS011;64406;50.024;14.492;2023-08-20T02:19:09;12.73;;;8.82;;
75787;SDS011;64406;50.024;14.492;2023-08-20T02:21:34;11.88;;;9.05;;
75787;SDS011;64406;50.024;14.492;2023-08-20T02:24:00;10.60;;;9.00;;
75787;SDS011;64406;50.024;14.492;2023-08-20T02:26:26;9.70;;;8.70;;
75787;SDS011;64406;50.024;14.492;2023-08-20T02:28:52;9.98;;;9.00;;
75787;SDS011;64406;50.024;14.492;2023-08-20T02:31:17;12.45;;;9.38;;
75787;SDS011;64406;50.024;14.492;2023-08-20T02:33:43;12.50;;;8.50;;
75787;SDS011;64406;50.024;14.492;2023-08-20T02:36:09;10.00;;;9.00;;
75787;SDS011;64406;50.024;14.492;2023-08-20T02:38:35;11.25;;;8.85;;
75787;SDS011;64406;50.024;14.492;2023-08-20T02:41:01;9.98;;;8.95;;
75787;SDS011;64406;50.024;14.492;2023-08-20T02:43:28;11.85;;;9.10;;
75787;SDS011;64406;50.024;14.492;2023-08-20T02:45:54;14.50;;;10.52;;
75787;SDS011;64406;50.024;14.492;2023-08-20T02:48:20;11.13;;;9.32;;
75787;SDS011;64406;50.024;14.492;2023-08-20T02:50:46;11.55;;;9.63;;
75787;SDS011;64406;50.024;14.492;2023-08-20T02:53:12;10.95;;;9.80;;
75787;SDS011;64406;50.024;14.492;2023-08-20T02:55:37;12.93;;;10.48;;
75787;SDS011;64406;50.024;14.492;2023-08-20T02:58:03;11.75;;;9.82;;
75787;SDS011;64406;50.024;14.492;2023-08-20T03:00:31;10.55;;;9.48;;
75787;SDS011;64406;50.024;14.492;2023-08-20T03:02:57;10.93;;;9.73;;
75787;SDS011;64406;50.024;14.492;2023-08-20T03:05:23;11.68;;;9.63;;
75787;SDS011;64406;50.024;14.492;2023-08-20T03:07:49;12.25;;;10.13;;
75787;SDS011;64406;50.024;14.492;2023-08-20T03:10:14;10.93;;;9.68;;
75787;SDS011;64406;50.024;14.492;2023-08-20T03:12:40;13.77;;;10.18;;
75787;SDS011;64406;50.024;14.492;2023-08-20T03:15:06;12.48;;;9.90;;
75787;SDS011;64406;50.024;14.492;2023-08-20T03:17:32;13.32;;;9.80;;
75787;SDS011;64406;50.024;14.492;2023-08-20T03:19:58;14.45;;;10.82;;
75787;SDS011;64406;50.024;14.492;2023-08-20T03:22:26;10.93;;;9.50;;
75787;SDS011;64406;50.024;14.492;2023-08-20T03:24:52;12.75;;;10.18;;
75787;SDS011;64406;50.024;14.492;2023-08-20T03:27:19;9.90;;;8.88;;
75787;SDS011;64406;50.024;14.492;2023-08-20T03:29:45;11.05;;;9.52;;
75787;SDS011;64406;50.024;14.492;2023-08-20T03:32:11;11.00;;;9.85;;
75787;SDS011;64406;50.024;14.492;2023-08-20T03:34:37;13.65;;;9.68;;
75787;SDS011;64406;50.024;14.492;2023-08-20T03:37:03;13.13;;;10.50;;
75787;SDS011;64406;50.024;14.492;2023-08-20T03:39:29;10.27;;;9.27;;
75787;SDS011;64406;50.024;14.492;2023-08-20T03:41:56;11.05;;;9.55;;
75787;SDS011;64406;50.024;14.492;2023-08-20T03:44:22;13.95;;;10.18;;
75787;SDS011;64406;50.024;14.492;2023-08-20T03:46:48;11.20;;;9.90;;
75787;SDS011;64406;50.024;14.492;2023-08-20T03:49:14;13.27;;;10.00;;
75787;SDS011;64406;50.024;14.492;2023-08-20T03:51:39;12.45;;;10.25;;
75787;SDS011;64406;50.024;14.492;2023-08-20T03:54:06;11.18;;;9.98;;
75787;SDS011;64406;50.024;14.492;2023-08-20T03:56:31;12.23;;;9.70;;
75787;SDS011;64406;50.024;14.492;2023-08-20T03:58:57;11.18;;;9.90;;
75787;SDS011;64406;50.024;14.492;2023-08-20T04:01:23;14.30;;;9.75;;
75787;SDS011;64406;50.024;14.492;2023-08-20T04:03:48;11.75;;;10.45;;
75787;SDS011;64406;50.024;14.492;2023-08-20T04:06:14;10.75;;;9.45;;
75787;SDS011;64406;50.024;14.492;2023-08-20T04:08:40;13.88;;;10.13;;
75787;SDS011;64406;50.024;14.492;2023-08-20T04:11:06;11.98;;;9.88;;
75787;SDS011;64406;50.024;14.492;2023-08-20T04:13:32;11.30;;;10.15;;
75787;SDS011;64406;50.024;14.492;2023-08-20T04:15:58;11.15;;;10.00;;
75787;SDS011;64406;50.024;14.492;2023-08-20T04:18:23;10.90;;;9.30;;
75787;SDS011;64406;50.024;14.492;2023-08-20T04:20:50;11.18;;;9.40;;
75787;SDS011;64406;50.024;14.492;2023-08-20T04:23:17;11.05;;;9.52;;
75787;SDS011;64406;50.024;14.492;2023-08-20T04:25:43;10.65;;;9.55;;
75787;SDS011;64406;50.024;14.492;2023-08-20T04:28:10;10.15;;;8.90;;
75787;SDS011;64406;50.024;14.492;2023-08-20T04:30:36;10.25;;;9.02;;
75787;SDS011;64406;50.024;14.492;2023-08-20T04:33:02;10.77;;;9.52;;
75787;SDS011;64406;50.024;14.492;2023-08-20T04:35:28;12.98;;;9.52;;
75787;SDS011;64406;50.024;14.492;2023-08-20T04:37:54;10.63;;;9.52;;
75787;SDS011;64406;50.024;14.492;2023-08-20T04:40:20;11.77;;;10.13;;
75787;SDS011;64406;50.024;14.492;2023-08-20T04:42:45;10.85;;;9.57;;
75787;SDS011;64406;50.024;14.492;2023-08-20T04:45:11;12.80;;;8.90;;
75787;SDS011;64406;50.024;14.492;2023-08-20T04:47:37;10.85;;;9.60;;
75787;SDS011;64406;50.024;14.492;2023-08-20T04:50:04;12.15;;;9.55;;
75787;SDS011;64406;50.024;14.492;2023-08-20T04:52:33;10.57;;;9.45;;
75787;SDS011;64406;50.024;14.492;2023-08-20T04:54:59;11.93;;;10.05;;
75787;SDS011;64406;50.024;14.492;2023-08-20T04:57:25;13.48;;;10.10;;
75787;SDS011;64406;50.024;14.492;2023-08-20T04:59:51;12.13;;;10.18;;
75787;SDS011;64406;50.024;14.492;2023-08-20T05:02:16;9.60;;;8.70;;
75787;SDS011;64406;50.024;14.492;2023-08-20T05:04:42;10.13;;;9.05;;
75787;SDS011;64406;50.024;14.492;2023-08-20T05:07:08;10.32;;;9.10;;
75787;SDS011;64406;50.024;14.492;2023-08-20T05:09:34;10.25;;;9.15;;
75787;SDS011;64406;50.024;14.492;2023-08-20T05:12:00;10.38;;;8.98;;
75787;SDS011;64406;50.024;14.492;2023-08-20T05:14:25;13.05;;;9.65;;
75787;SDS011;64406;50.024;14.492;2023-08-20T05:16:51;13.40;;;10.45;;
75787;SDS011;64406;50.024;14.492;2023-08-20T05:19:17;10.68;;;9.40;;
75787;SDS011;64406;50.024;14.492;2023-08-20T05:21:42;10.68;;;9.57;;
75787;SDS011;64406;50.024;14.492;2023-08-20T05:24:08;10.05;;;8.95;;
75787;SDS011;64406;50.024;14.492;2023-08-20T05:26:34;12.25;;;10.45;;
75787;SDS011;64406;50.024;14.492;2023-08-20T05:29:00;10.23;;;9.13;;
75787;SDS011;64406;50.024;14.492;2023-08-20T05:31:26;9.95;;;8.63;;
75787;SDS011;64406;50.024;14.492;2023-08-20T05:33:52;10.43;;;9.32;;
75787;SDS011;64406;50.024;14.492;2023-08-20T05:36:17;11.05;;;8.75;;
75787;SDS011;64406;50.024;14.492;2023-08-20T05:38:43;11.70;;;9.95;;
75787;SDS011;64406;50.024;14.492;2023-08-20T05:41:08;9.85;;;8.77;;
75787;SDS011;64406;50.024;14.492;2023-08-20T05:43:36;10.40;;;9.20;;
75787;SDS011;64406;50.024;14.492;2023-08-20T05:46:02;12.73;;;9.68;;
75787;SDS011;64406;50.024;14.492;2023-08-20T05:48:28;13.10;;;9.73;;
75787;SDS011;64406;50.024;14.492;2023-08-20T05:50:54;11.05;;;9.88;;
75787;SDS011;64406;50.024;14.492;2023-08-20T05:53:21;10.15;;;9.15;;
75787;SDS011;64406;50.024;14.492;2023-08-20T05:55:47;11.90;;;9.15;;
75787;SDS011;64406;50.024;14.492;2023-08-20T05:58:13;11.90;;;9.20;;
75787;SDS011;64406;50.024;14.492;2023-08-20T06:00:38;11.05;;;9.05;;
75787;SDS011;64406;50.024;14.492;2023-08-20T06:03:04;11.05;;;9.95;;
75787;SDS011;64406;50.024;14.492;2023-08-20T06:05:30;13.85;;;8.95;;
75787;SDS011;64406;50.024;14.492;2023-08-20T06:07:56;10.95;;;9.93;;
75787;SDS011;64406;50.024;14.492;2023-08-20T06:10:22;11.45;;;10.25;;
75787;SDS011;64406;50.024;14.492;2023-08-20T06:12:47;10.80;;;9.45;;
75787;SDS011;64406;50.024;14.492;2023-08-20T06:15:14;11.55;;;9.45;;
75787;SDS011;64406;50.024;14.492;2023-08-20T06:17:40;15.30;;;10.10;;
75787;SDS011;64406;50.024;14.492;2023-08-20T06:20:05;9.18;;;8.27;;
75787;SDS011;64406;50.024;14.492;2023-08-20T06:22:33;11.50;;;9.70;;
75787;SDS011;64406;50.024;14.492;2023-08-20T06:24:59;11.73;;;9.85;;
75787;SDS011;64406;50.024;14.492;2023-08-20T06:27:25;11.57;;;10.38;;
75787;SDS011;64406;50.024;14.492;2023-08-20T06:29:51;11.68;;;10.48;;
75787;SDS011;64406;50.024;14.492;2023-08-20T06:32:16;10.90;;;9.48;;
75787;SDS011;64406;50.024;14.492;2023-08-20T06:34:42;13.07;;;9.63;;
75787;SDS011;64406;50.024;14.492;2023-08-20T06:37:08;11.77;;;9.77;;
75787;SDS011;64406;50.024;14.492;2023-08-20T06:39:33;10.35;;;9.25;;
75787;SDS011;64406;50.024;14.492;2023-08-20T06:41:59;11.10;;;10.00;;
75787;SDS011;64406;50.024;14.492;2023-08-20T06:44:24;12.93;;;10.05;;
75787;SDS011;64406;50.024;14.492;2023-08-20T06:46:50;12.82;;;9.80;;
75787;SDS011;64406;50.024;14.492;2023-08-20T06:49:16;10.15;;;9.10;;
75787;SDS011;64406;50.024;14.492;2023-08-20T06:51:41;10.98;;;9.45;;
75787;SDS011;64406;50.024;14.492;2023-08-20T06:54:07;11.85;;;9.55;;
75787;SDS011;64406;50.024;14.492;2023-08-20T06:56:33;9.98;;;9.02;;
75787;SDS011;64406;50.024;14.492;2023-08-20T06:58:59;10.88;;;9.77;;
75787;SDS011;64406;50.024;14.492;2023-08-20T07:01:26;11.32;;;10.15;;
75787;SDS011;64406;50.024;14.492;2023-08-20T07:03:51;10.95;;;9.15;;
75787;SDS011;64406;50.024;14.492;2023-08-20T07:06:17;10.15;;;9.15;;
75787;SDS011;64406;50.024;14.492;2023-08-20T07:08:43;10.10;;;9.10;;
75787;SDS011;64406;50.024;14.492;2023-08-20T07:11:10;10.23;;;9.10;;
75787;SDS011;64406;50.024;14.492;2023-08-20T07:13:35;11.80;;;9.00;;
75787;SDS011;64406;50.024;14.492;2023-08-20T07:16:02;10.23;;;9.13;;
75787;SDS011;64406;50.024;14.492;2023-08-20T07:18:27;10.18;;;9.15;;
75787;SDS011;64406;50.024;14.492;2023-08-20T07:20:54;9.57;;;8.60;;
75787;SDS011;64406;50.024;14.492;2023-08-20T07:23:20;11.18;;;9.25;;
75787;SDS011;64406;50.024;14.492;2023-08-20T07:25:46;10.60;;;8.80;;
75787;SDS011;64406;50.024;14.492;2023-08-20T07:28:12;14.07;;;9.30;;
75787;SDS011;64406;50.024;14.492;2023-08-20T07:30:38;9.45;;;8.55;;
75787;SDS011;64406;50.024;14.492;2023-08-20T07:33:03;10.00;;;9.00;;
75787;SDS011;64406;50.024;14.492;2023-08-20T07:35:29;12.43;;;8.63;;
75787;SDS011;64406;50.024;14.492;2023-08-20T07:37:55;10.23;;;9.23;;
75787;SDS011;64406;50.024;14.492;2023-08-20T07:40:20;12.68;;;9.70;;
75787;SDS011;64406;50.024;14.492;2023-08-20T07:42:46;11.73;;;9.10;;
75787;SDS011;64406;50.024;14.492;2023-08-20T07:45:12;10.73;;;9.18;;
75787;SDS011;64406;50.024;14.492;2023-08-20T07:47:38;9.52;;;8.48;;
75787;SDS011;64406;50.024;14.492;2023-08-20T07:50:05;11.32;;;9.35;;
75787;SDS011;64406;50.024;14.492;2023-08-20T07:52:31;9.60;;;8.57;;
75787;SDS011;64406;50.024;14.492;2023-08-20T07:54:57;12.73;;;9.63;;
75787;SDS011;64406;50.024;14.492;2023-08-20T07:57:23;11.40;;;8.82;;
75787;SDS011;64406;50.024;14.492;2023-08-20T07:59:49;13.30;;;9.02;;
75787;SDS011;64406;50.024;14.492;2023-08-20T08:02:15;10.80;;;9.13;;
75787;SDS011;64406;50.024;14.492;2023-08-20T08:04:41;9.15;;;8.25;;
75787;SDS011;64406;50.024;14.492;2023-08-20T08:07:07;9.32;;;8.43;;
75787;SDS011;64406;50.024;14.492;2023-08-20T08:17:02;9.77;;;8.20;;
75787;SDS011;64406;50.024;14.492;2023-08-20T08:19:28;9.70;;;8.23;;
75787;SDS011;64406;50.024;14.492;2023-08-20T08:21:53;10.02;;;9.02;;
75787;SDS011;64406;50.024;14.492;2023-08-20T08:24:19;11.20;;;8.82;;
75787;SDS011;64406;50.024;14.492;2023-08-20T08:26:45;10.02;;;8.48;;
75787;SDS011;64406;50.024;14.492;2023-08-20T08:29:10;9.13;;;8.18;;
75787;SDS011;64406;50.024;14.492;2023-08-20T08:31:36;10.13;;;8.80;;
75787;SDS011;64406;50.024;14.492;2023-08-20T08:34:02;11.20;;;8.48;;
75787;SDS011;64406;50.024;14.492;2023-08-20T08:36:28;9.90;;;8.90;;
75787;SDS011;64406;50.024;14.492;2023-08-20T08:38:54;9.52;;;8.25;;
75787;SDS011;64406;50.024;14.492;2023-08-20T08:41:23;9.65;;;8.55;;
75787;SDS011;64406;50.024;14.492;2023-08-20T08:43:51;11.40;;;8.38;;
75787;SDS011;64406;50.024;14.492;2023-08-20T08:46:18;9.70;;;8.70;;
75787;SDS011;64406;50.024;14.492;2023-08-20T08:48:45;9.52;;;8.63;;
75787;SDS011;64406;50.024;14.492;2023-08-20T08:51:13;9.90;;;8.60;;
75787;SDS011;64406;50.024;14.492;2023-08-20T08:53:39;10.80;;;8.80;;
75787;SDS011;64406;50.024;14.492;2023-08-20T08:56:07;10.35;;;8.07;;
75787;SDS011;64406;50.024;14.492;2023-08-20T08:58:33;9.85;;;8.40;;
75787;SDS011;64406;50.024;14.492;2023-08-20T09:00:59;9.93;;;8.45;;
75787;SDS011;64406;50.024;14.492;2023-08-20T09:03:25;11.43;;;9.38;;
75787;SDS011;64406;50.024;14.492;2023-08-20T09:05:55;11.95;;;9.02;;
75787;SDS011;64406;50.024;14.492;2023-08-20T09:08:23;10.60;;;9.48;;
75787;SDS011;64406;50.024;14.492;2023-08-20T09:10:52;12.20;;;9.45;;
75787;SDS011;64406;50.024;14.492;2023-08-20T09:13:23;10.88;;;9.13;;
75787;SDS011;64406;50.024;14.492;2023-08-20T09:15:53;11.13;;;9.98;;
75787;SDS011;64406;50.024;14.492;2023-08-20T09:18:20;11.82;;;10.35;;
75787;SDS011;64406;50.024;14.492;2023-08-20T09:20:47;11.27;;;10.07;;
75787;SDS011;64406;50.024;14.492;2023-08-20T09:23:15;11.38;;;9.65;;
75787;SDS011;64406;50.024;14.492;2023-08-20T09:25:41;11.68;;;10.48;;
75787;SDS011;64406;50.024;14.492;2023-08-20T09:28:08;12.63;;;9.80;;
75787;SDS011;64406;50.024;14.492;2023-08-20T09:30:34;11.98;;;10.20;;
75787;SDS011;64406;50.024;14.492;2023-08-20T09:33:12;11.20;;;10.13;;
75787;SDS011;64406;50.024;14.492;2023-08-20T09:35:48;15.00;;;11.05;;
75787;SDS011;64406;50.024;14.492;2023-08-20T09:38:14;13.63;;;11.32;;
75787;SDS011;64406;50.024;14.492;2023-08-20T09:40:40;16.83;;;12.02;;
75787;SDS011;64406;50.024;14.492;2023-08-20T09:43:06;15.35;;;11.32;;
75787;SDS011;64406;50.024;14.492;2023-08-20T09:45:33;13.98;;;11.90;;
75787;SDS011;64406;50.024;14.492;2023-08-20T09:48:00;14.75;;;12.77;;
75787;SDS011;64406;50.024;14.492;2023-08-20T09:50:32;16.20;;;12.32;;
75787;SDS011;64406;50.024;14.492;2023-08-20T09:53:03;15.13;;;11.85;;
75787;SDS011;64406;50.024;14.492;2023-08-20T09:55:38;15.88;;;12.63;;
75787;SDS011;64406;50.024;14.492;2023-08-20T09:58:06;16.27;;;12.63;;
75787;SDS011;64406;50.024;14.492;2023-08-20T10:00:32;15.50;;;13.10;;
75787;SDS011;64406;50.024;14.492;2023-08-20T10:02:58;14.40;;;12.65;;
75787;SDS011;64406;50.024;14.492;2023-08-20T10:05:25;15.27;;;11.50;;
75787;SDS011;64406;50.024;14.492;2023-08-20T10:07:51;12.25;;;10.57;;
75787;SDS011;64406;50.024;14.492;2023-08-20T10:10:17;12.73;;;11.13;;
75787;SDS011;64406;50.024;14.492;2023-08-20T10:12:43;12.95;;;11.18;;
75787;SDS011;64406;50.024;14.492;2023-08-20T10:15:14;13.77;;;10.88;;
75787;SDS011;64406;50.024;14.492;2023-08-20T10:17:41;13.98;;;10.90;;
75787;SDS011;64406;50.024;14.492;2023-08-20T10:20:08;13.05;;;11.85;;
75787;SDS011;64406;50.024;14.492;2023-08-20T10:22:36;11.90;;;10.75;;
75787;SDS011;64406;50.024;14.492;2023-08-20T10:25:06;12.57;;;11.35;;
75787;SDS011;64406;50.024;14.492;2023-08-20T10:27:33;12.48;;;11.18;;
75787;SDS011;64406;50.024;14.492;2023-08-20T10:30:00;14.13;;;11.20;;
75787;SDS011;64406;50.024;14.492;2023-08-20T10:32:47;12.38;;;11.10;;
75787;SDS011;64406;50.024;14.492;2023-08-20T10:35:46;10.60;;;9.40;;
75787;SDS011;64406;50.024;14.492;2023-08-20T10:38:14;12.32;;;8.88;;
75787;SDS011;64406;50.024;14.492;2023-08-20T10:48:35;9.55;;;8.65;;
75787;SDS011;64406;50.024;14.492;2023-08-20T10:53:36;10.10;;;8.90;;
75787;SDS011;64406;50.024;14.492;2023-08-20T10:58:44;13.38;;;9.95;;
75787;SDS011;64406;50.024;14.492;2023-08-20T11:01:21;10.23;;;9.20;;
75787;SDS011;64406;50.024;14.492;2023-08-20T11:03:51;9.23;;;8.32;;
75787;SDS011;64406;50.024;14.492;2023-08-20T11:06:17;9.85;;;8.95;;
75787;SDS011;64406;50.024;14.492;2023-08-20T11:08:44;10.23;;;9.05;;
75787;SDS011;64406;50.024;14.492;2023-08-20T11:11:10;9.40;;;8.52;;
75787;SDS011;64406;50.024;14.492;2023-08-20T11:13:37;9.40;;;8.50;;
75787;SDS011;64406;50.024;14.492;2023-08-20T11:16:03;13.02;;;8.85;;
75787;SDS011;64406;50.024;14.492;2023-08-20T11:18:32;10.50;;;9.45;;
75787;SDS011;64406;50.024;14.492;2023-08-20T11:20:59;10.35;;;9.23;;
75787;SDS011;64406;50.024;14.492;2023-08-20T11:23:25;9.98;;;8.95;;
75787;SDS011;64406;50.024;14.492;2023-08-20T11:25:51;9.75;;;8.82;;
75787;SDS011;64406;50.024;14.492;2023-08-20T11:28:17;11.30;;;9.38;;
75787;SDS011;64406;50.024;14.492;2023-08-20T11:30:42;10.02;;;9.02;;
75787;SDS011;64406;50.024;14.492;2023-08-20T11:33:08;10.48;;;8.45;;
75787;SDS011;64406;50.024;14.492;2023-08-20T11:35:34;9.43;;;8.48;;
75787;SDS011;64406;50.024;14.492;2023-08-20T11:38:00;11.57;;;9.40;;
75787;SDS011;64406;50.024;14.492;2023-08-20T11:40:28;10.13;;;9.10;;
75787;SDS011;64406;50.024;14.492;2023-08-20T11:42:53;11.43;;;8.77;;
75787;SDS011;64406;50.024;14.492;2023-08-20T11:45:19;9.50;;;8.52;;
75787;SDS011;64406;50.024;14.492;2023-08-20T11:47:45;8.88;;;8.07;;
75787;SDS011;64406;50.024;14.492;2023-08-20T11:50:10;11.45;;;8.63;;
75787;SDS011;64406;50.024;14.492;2023-08-20T11:52:36;9.20;;;7.90;;
75787;SDS011;64406;50.024;14.492;2023-08-20T11:55:04;8.88;;;8.07;;
75787;SDS011;64406;50.024;14.492;2023-08-20T11:57:31;9.55;;;8.52;;
75787;SDS011;64406;50.024;14.492;2023-08-20T12:00:03;8.68;;;7.70;;
75787;SDS011;64406;50.024;14.492;2023-08-20T12:02:41;8.75;;;7.95;;
75787;SDS011;64406;50.024;14.492;2023-08-20T12:05:07;9.10;;;8.32;;
75787;SDS011;64406;50.024;14.492;2023-08-20T12:07:33;10.45;;;8.65;;
75787;SDS011;64406;50.024;14.492;2023-08-20T12:10:06;9.40;;;8.00;;
75787;SDS011;64406;50.024;14.492;2023-08-20T12:12:44;9.00;;;8.10;;
75787;SDS011;64406;50.024;14.492;2023-08-20T12:15:10;9.07;;;8.15;;
75787;SDS011;64406;50.024;14.492;2023-08-20T12:17:36;8.38;;;7.53;;
75787;SDS011;64406;50.024;14.492;2023-08-20T12:20:01;8.50;;;7.68;;
75787;SDS011;64406;50.024;14.492;2023-08-20T12:22:35;8.27;;;7.47;;
75787;SDS011;64406;50.024;14.492;2023-08-20T12:25:00;8.70;;;7.63;;
75787;SDS011;64406;50.024;14.492;2023-08-20T12:27:26;8.77;;;7.68;;
75787;SDS011;64406;50.024;14.492;2023-08-20T12:29:52;7.97;;;7.18;;
75787;SDS011;64406;50.024;14.492;2023-08-20T12:32:18;8.05;;;7.30;;
75787;SDS011;64406;50.024;14.492;2023-08-20T12:34:43;7.90;;;7.18;;
75787;SDS011;64406;50.024;14.492;2023-08-20T12:37:09;8.07;;;7.30;;
75787;SDS011;64406;50.024;14.492;2023-08-20T12:39:35;16.67;;;7.70;;
75787;SDS011;64406;50.024;14.492;2023-08-20T12:42:01;10.35;;;7.10;;
75787;SDS011;64406;50.024;14.492;2023-08-20T12:44:26;7.97;;;7.30;;
75787;SDS011;64406;50.024;14.492;2023-08-20T12:46:52;8.27;;;7.47;;
75787;SDS011;64406;50.024;14.492;2023-08-20T12:49:17;7.90;;;7.10;;
75787;SDS011;64406;50.024;14.492;2023-08-20T12:51:43;7.60;;;6.90;;
75787;SDS011;64406;50.024;14.492;2023-08-20T12:54:09;7.35;;;6.75;;
75787;SDS011;64406;50.024;14.492;2023-08-20T12:56:34;7.63;;;7.03;;
75787;SDS011;64406;50.024;14.492;2023-08-20T12:59:00;7.85;;;6.90;;
75787;SDS011;64406;50.024;14.492;2023-08-20T13:01:26;8.85;;;7.00;;
75787;SDS011;64406;50.024;14.492;2023-08-20T13:03:51;8.93;;;6.30;;
75787;SDS011;64406;50.024;14.492;2023-08-20T13:06:17;8.80;;;6.78;;
75787;SDS011;64406;50.024;14.492;2023-08-20T13:08:43;6.63;;;6.13;;
75787;SDS011;64406;50.024;14.492;2023-08-20T13:11:09;6.63;;;6.03;;
75787;SDS011;64406;50.024;14.492;2023-08-20T13:13:39;7.00;;;6.38;;
75787;SDS011;64406;50.024;14.492;2023-08-20T13:16:05;8.60;;;6.80;;
75787;SDS011;64406;50.024;14.492;2023-08-20T13:18:30;6.55;;;5.95;;
75787;SDS011;64406;50.024;14.492;2023-08-20T13:20:56;5.10;;;4.70;;
75787;SDS011;64406;50.024;14.492;2023-08-20T13:23:22;6.30;;;5.70;;
75787;SDS011;64406;50.024;14.492;2023-08-20T13:25:49;5.97;;;5.40;;
75787;SDS011;64406;50.024;14.492;2023-08-20T13:28:14;6.38;;;5.45;;
75787;SDS011;64406;50.024;14.492;2023-08-20T13:30:40;6.75;;;6.00;;
75787;SDS011;64406;50.024;14.492;2023-08-20T13:33:05;6.25;;;5.75;;
75787;SDS011;64406;50.024;14.492;2023-08-20T13:35:31;6.07;;;5.47;;
75787;SDS011;64406;50.024;14.492;2023-08-20T13:37:57;6.93;;;5.70;;
75787;SDS011;64406;50.024;14.492;2023-08-20T13:40:22;5.85;;;5.35;;
75787;SDS011;64406;50.024;14.492;2023-08-20T13:42:48;5.78;;;5.28;;
75787;SDS011;64406;50.024;14.492;2023-08-20T13:45:13;5.80;;;5.32;;
75787;SDS011;64406;50.024;14.492;2023-08-20T13:47:39;6.57;;;5.13;;
75787;SDS011;64406;50.024;14.492;2023-08-20T13:50:05;6.07;;;5.55;;
75787;SDS011;64406;50.024;14.492;2023-08-20T13:52:30;7.50;;;5.38;;
75787;SDS011;64406;50.024;14.492;2023-08-20T13:54:56;5.75;;;5.15;;
75787;SDS011;64406;50.024;14.492;2023-08-20T13:57:22;6.50;;;5.55;;
75787;SDS011;64406;50.024;14.492;2023-08-20T13:59:47;6.22;;;5.63;;
75787;SDS011;64406;50.024;14.492;2023-08-20T14:02:14;5.78;;;5.20;;
75787;SDS011;64406;50.024;14.492;2023-08-20T14:04:40;5.68;;;4.90;;
75787;SDS011;64406;50.024;14.492;2023-08-20T14:07:05;6.28;;;5.05;;
75787;SDS011;64406;50.024;14.492;2023-08-20T14:09:31;6.57;;;6.05;;
75787;SDS011;64406;50.024;14.492;2023-08-20T14:11:59;7.38;;;5.43;;
75787;SDS011;64406;50.024;14.492;2023-08-20T14:14:25;7.00;;;5.43;;
75787;SDS011;64406;50.024;14.492;2023-08-20T14:16:51;5.93;;;4.78;;
75787;SDS011;64406;50.024;14.492;2023-08-20T14:19:16;6.07;;;5.50;;
75787;SDS011;64406;50.024;14.492;2023-08-20T14:21:42;5.90;;;5.43;;
75787;SDS011;64406;50.024;14.492;2023-08-20T14:24:07;6.97;;;5.15;;
75787;SDS011;64406;50.024;14.492;2023-08-20T14:26:33;6.95;;;5.20;;
75787;SDS011;64406;50.024;14.492;2023-08-20T14:28:59;6.20;;;5.60;;
75787;SDS011;64406;50.024;14.492;2023-08-20T14:31:24;6.65;;;5.15;;
75787;SDS011;64406;50.024;14.492;2023-08-20T14:33:50;10.65;;;5.78;;
75787;SDS011;64406;50.024;14.492;2023-08-20T14:36:16;6.88;;;5.45;;
75787;SDS011;64406;50.024;14.492;2023-08-20T14:38:41;5.93;;;5.32;;
75787;SDS011;64406;50.024;14.492;2023-08-20T14:41:07;6.95;;;5.95;;
75787;SDS011;64406;50.024;14.492;2023-08-20T14:43:33;6.47;;;5.97;;
75787;SDS011;64406;50.024;14.492;2023-08-20T14:45:58;6.80;;;5.47;;